Time;durP1;ratioP1;P1;durP2;ratioP2;P2;SDS_P1;SDS_P2;PMS_P1;PMS_P2;Temp;Humidity;BMP_temperature;BMP_pressure;BME280_temperature;BME280_humidity;BME280_pressure;Samples;Min_cycle;Max_cycle;Signal;HPM_P1;HPM_P2
2021/12/09 00:01:54;;;;;;;13.35;2.70;;;;;;;;;;8295016;28;20044;-63
2021/12/09 00:05:56;;;;;;;11.60;3.40;;;;;;;;;;8293717;28;20025;-63
2021/12/09 00:09:56;;;;;;;7.47;2.30;;;;;;;;;;8293408;28;20096;-64
2021/12/09 00:13:57;;;;;;;11.45;3.22;;;;;;;;;;8296988;28;20025;-63
2021/12/09 00:17:57;;;;;;;12.35;2.88;;;;;;;;;;8291464;28;20568;-63
2021/12/09 00:21:59;;;;;;;8.02;2.45;;;;;;;;;;8294378;28;20030;-63
2021/12/09 00:25:59;;;;;;;11.00;2.80;;;;;;;;;;8292902;28;20460;-63
2021/12/09 00:29:59;;;;;;;8.75;2.50;;;;;;;;;;8292066;28;20541;-63
2021/12/09 00:34:00;;;;;;;3.28;2.30;;;;;;;;;;8289746;28;20044;-64
2021/12/09 00:38:06;;;;;;;8.88;2.53;;;;;;;;;;8291881;28;20120;-64
2021/12/09 00:42:06;;;;;;;11.57;3.28;;;;;;;;;;8291614;28;20040;-64
2021/12/09 00:46:07;;;;;;;12.40;2.80;;;;;;;;;;8290856;28;20049;-64
2021/12/09 00:50:08;;;;;;;8.65;2.72;;;;;;;;;;8293234;28;20260;-64
2021/12/09 00:54:08;;;;;;;8.05;3.13;;;;;;;;;;8288637;28;20117;-63
2021/12/09 00:58:08;;;;;;;11.35;2.70;;;;;;;;;;8289345;28;20521;-63
2021/12/09 01:02:10;;;;;;;7.60;2.63;;;;;;;;;;8296579;28;20037;-64
2021/12/09 01:06:10;;;;;;;8.65;2.40;;;;;;;;;;8295387;28;20032;-63
2021/12/09 01:10:12;;;;;;;6.80;2.38;;;;;;;;;;8291652;28;20033;-63
2021/12/09 01:14:12;;;;;;;7.72;2.20;;;;;;;;;;8289215;28;20026;-64
2021/12/09 01:18:12;;;;;;;19.83;3.13;;;;;;;;;;8291217;28;20674;-64
2021/12/09 01:22:13;;;;;;;8.55;2.35;;;;;;;;;;8291060;28;20025;-64
2021/12/09 01:26:13;;;;;;;12.65;2.70;;;;;;;;;;8290098;28;20068;-63
2021/12/09 01:30:16;;;;;;;7.15;2.30;;;;;;;;;;8291846;28;20033;-64
2021/12/09 01:34:19;;;;;;;7.88;2.35;;;;;;;;;;8291637;28;20134;-64
2021/12/09 01:38:19;;;;;;;8.32;2.40;;;;;;;;;;8293516;28;20363;-63
2021/12/09 01:42:20;;;;;;;7.33;2.17;;;;;;;;;;8289209;28;20029;-63
2021/12/09 01:46:20;;;;;;;3.40;1.63;;;;;;;;;;8289877;28;20827;-63
2021/12/09 01:50:22;;;;;;;5.57;2.28;;;;;;;;;;8291680;28;20017;-63
2021/12/09 01:54:25;;;;;;;6.57;1.90;;;;;;;;;;8292136;28;20021;-63
2021/12/09 01:58:25;;;;;;;8.02;2.05;;;;;;;;;;8289942;28;20033;-63
2021/12/09 02:02:25;;;;;;;6.47;1.80;;;;;;;;;;8289358;28;20041;-63
2021/12/09 02:06:26;;;;;;;5.00;2.10;;;;;;;;;;8292378;28;20643;-63
2021/12/09 02:10:27;;;;;;;9.00;2.28;;;;;;;;;;8286719;28;20275;-63
2021/12/09 02:14:27;;;;;;;8.30;2.08;;;;;;;;;;8292278;28;20035;-63
2021/12/09 02:18:27;;;;;;;6.28;1.80;;;;;;;;;;8289703;28;20033;-63
2021/12/09 02:22:29;;;;;;;6.05;1.70;;;;;;;;;;8290187;28;20095;-63
2021/12/09 02:26:31;;;;;;;5.60;1.83;;;;;;;;;;8288528;28;20116;-63
2021/12/09 02:30:31;;;;;;;6.40;1.80;;;;;;;;;;8289907;28;20044;-63
2021/12/09 02:34:31;;;;;;;6.63;1.55;;;;;;;;;;8288738;28;20024;-63
2021/12/09 02:38:32;;;;;;;5.40;1.53;;;;;;;;;;8290758;28;20049;-63
2021/12/09 02:42:34;;;;;;;7.18;2.00;;;;;;;;;;8287411;28;20676;-63
2021/12/09 02:46:37;;;;;;;6.45;1.90;;;;;;;;;;8289657;28;20128;-63
2021/12/09 02:50:37;;;;;;;5.47;1.80;;;;;;;;;;8287674;28;20025;-63
2021/12/09 02:54:37;;;;;;;3.33;1.55;;;;;;;;;;8284421;28;20154;-63
2021/12/09 02:58:38;;;;;;;5.10;1.55;;;;;;;;;;8287736;28;20038;-63
2021/12/09 03:02:41;;;;;;;3.17;1.35;;;;;;;;;;8286145;28;20049;-63
2021/12/09 03:06:42;;;;;;;5.93;1.70;;;;;;;;;;8289323;28;20082;-63
2021/12/09 03:10:42;;;;;;;8.48;1.65;;;;;;;;;;8289041;28;20120;-63
2021/12/09 03:14:42;;;;;;;9.88;1.83;;;;;;;;;;8289103;28;20029;-63
2021/12/09 03:18:45;;;;;;;5.32;1.80;;;;;;;;;;8287032;28;20072;-63
2021/12/09 03:22:46;;;;;;;6.80;1.75;;;;;;;;;;8292767;28;20560;-63
2021/12/09 03:26:54;;;;;;;5.78;1.50;;;;;;;;;;8292675;28;20139;-63
2021/12/09 03:30:54;;;;;;;7.55;1.63;;;;;;;;;;8295113;28;21126;-64
2021/12/09 03:34:54;;;;;;;3.38;1.85;;;;;;;;;;8292600;28;20030;-63
2021/12/09 03:38:56;;;;;;;4.40;1.50;;;;;;;;;;8294410;28;20033;-63
2021/12/09 03:42:56;;;;;;;4.57;1.45;;;;;;;;;;8292600;28;20056;-63
2021/12/09 03:46:58;;;;;;;5.82;1.58;;;;;;;;;;8293889;28;20037;-63
2021/12/09 03:50:58;;;;;;;2.85;1.30;;;;;;;;;;8292619;28;20076;-64
2021/12/09 03:54:58;;;;;;;5.20;1.52;;;;;;;;;;8295725;28;20244;-63
2021/12/09 03:58:58;;;;;;;2.92;1.48;;;;;;;;;;8296674;28;20151;-63
2021/12/09 04:02:59;;;;;;;6.53;1.73;;;;;;;;;;8294427;28;20038;-63
2021/12/09 04:06:59;;;;;;;4.25;1.60;;;;;;;;;;8293122;28;20259;-63
2021/12/09 04:10:59;;;;;;;6.70;1.75;;;;;;;;;;8291636;28;20026;-63
2021/12/09 04:15:00;;;;;;;6.25;1.98;;;;;;;;;;8291463;28;21146;-64
2021/12/09 04:19:00;;;;;;;4.65;1.75;;;;;;;;;;8291906;28;20284;-63
2021/12/09 04:23:00;;;;;;;6.05;1.45;;;;;;;;;;8293245;28;20041;-63
2021/12/09 04:27:01;;;;;;;4.97;2.00;;;;;;;;;;8293344;28;20284;-63
2021/12/09 04:31:01;;;;;;;5.18;2.03;;;;;;;;;;8293805;28;20110;-63
2021/12/09 04:35:01;;;;;;;3.13;2.00;;;;;;;;;;8291896;28;20544;-63
2021/12/09 04:39:02;;;;;;;10.38;2.40;;;;;;;;;;8291236;28;20578;-63
2021/12/09 04:43:03;;;;;;;9.05;2.58;;;;;;;;;;8292970;28;20036;-63
2021/12/09 04:47:03;;;;;;;6.75;2.83;;;;;;;;;;8290276;28;20034;-63
2021/12/09 04:51:03;;;;;;;6.75;2.95;;;;;;;;;;8291562;28;20020;-63
2021/12/09 04:55:05;;;;;;;8.68;3.00;;;;;;;;;;8290165;28;20030;-63
2021/12/09 04:59:06;;;;;;;5.45;2.55;;;;;;;;;;8296409;28;20091;-64
2021/12/09 05:03:09;;;;;;;9.43;3.10;;;;;;;;;;8291524;28;20049;-63
2021/12/09 05:07:10;;;;;;;6.80;3.40;;;;;;;;;;8289758;28;20105;-63
2021/12/09 05:11:30;;;;;;;5.03;3.47;;;;;;;;;;8293274;28;20444;-63
2021/12/09 05:15:32;;;;;;;8.43;4.25;;;;;;;;;;8288462;28;20087;-63
2021/12/09 05:19:32;;;;;;;8.32;3.97;;;;;;;;;;8289879;28;20079;-63
2021/12/09 05:23:32;;;;;;;7.72;4.38;;;;;;;;;;8291248;28;20018;-63
2021/12/09 05:27:36;;;;;;;5.55;3.95;;;;;;;;;;8290881;28;20637;-63
2021/12/09 05:35:55;;;;;;;7.47;4.55;;;;;;;;;;8290496;28;20036;-63
2021/12/09 05:39:56;;;;;;;7.70;4.78;;;;;;;;;;8290837;28;20064;-63
2021/12/09 05:43:56;;;;;;;7.93;4.10;;;;;;;;;;8287363;28;20777;-63
2021/12/09 05:47:57;;;;;;;9.10;4.43;;;;;;;;;;8289063;28;20049;-63
2021/12/09 05:51:57;;;;;;;9.13;4.90;;;;;;;;;;8289929;28;20026;-63
2021/12/09 05:55:57;;;;;;;7.35;4.38;;;;;;;;;;8288193;28;20525;-63
2021/12/09 05:59:59;;;;;;;12.25;5.30;;;;;;;;;;8292643;28;20038;-63
2021/12/09 06:04:00;;;;;;;6.93;4.53;;;;;;;;;;8288669;28;21026;-63
2021/12/09 06:08:00;;;;;;;9.27;4.72;;;;;;;;;;8289855;28;20033;-63
2021/12/09 06:12:01;;;;;;;10.25;4.72;;;;;;;;;;8289407;28;20079;-63
2021/12/09 06:16:01;;;;;;;8.50;4.10;;;;;;;;;;8289801;28;20033;-63
2021/12/09 06:20:01;;;;;;;9.18;4.00;;;;;;;;;;8288417;28;20032;-63
2021/12/09 06:24:02;;;;;;;7.72;3.60;;;;;;;;;;8289074;28;20124;-63
2021/12/09 06:28:02;;;;;;;5.50;3.63;;;;;;;;;;8290215;28;20133;-63
2021/12/09 06:32:03;;;;;;;9.97;3.80;;;;;;;;;;8286753;28;20041;-63
2021/12/09 06:36:03;;;;;;;9.18;4.47;;;;;;;;;;8289353;28;20806;-64
2021/12/09 06:40:04;;;;;;;8.18;4.60;;;;;;;;;;8288925;28;20032;-63
2021/12/09 06:44:05;;;;;;;11.80;4.93;;;;;;;;;;8286653;28;20029;-64
2021/12/09 06:48:05;;;;;;;11.82;5.05;;;;;;;;;;8289958;28;20439;-64
2021/12/09 06:52:05;;;;;;;7.50;3.90;;;;;;;;;;8286176;28;20025;-64
2021/12/09 06:56:06;;;;;;;9.25;4.45;;;;;;;;;;8295567;28;20061;-64
2021/12/09 07:00:08;;;;;;;15.27;5.88;;;;;;;;;;8297190;28;20628;-64
2021/12/09 07:04:09;;;;;;;15.00;5.78;;;;;;;;;;8294613;28;20017;-64
2021/12/09 07:08:09;;;;;;;17.63;7.28;;;;;;;;;;8293660;28;20017;-64
2021/12/09 07:12:09;;;;;;;14.70;4.97;;;;;;;;;;8291635;28;20033;-64
2021/12/09 07:16:10;;;;;;;10.57;4.40;;;;;;;;;;8293369;28;20055;-64
2021/12/09 07:20:12;;;;;;;8.27;4.65;;;;;;;;;;8295937;28;20024;-64
2021/12/09 07:24:12;;;;;;;21.58;6.90;;;;;;;;;;8296327;28;20403;-64
2021/12/09 07:28:13;;;;;;;15.20;6.22;;;;;;;;;;8294681;28;20084;-65
2021/12/09 07:32:13;;;;;;;8.65;4.72;;;;;;;;;;8291446;28;21155;-64
2021/12/09 07:36:13;;;;;;;8.07;4.57;;;;;;;;;;8298334;28;20130;-64
2021/12/09 07:40:15;;;;;;;11.32;5.13;;;;;;;;;;8294774;28;20033;-64
2021/12/09 07:44:17;;;;;;;16.88;5.22;;;;;;;;;;8292197;28;20030;-64
2021/12/09 07:48:17;;;;;;;11.18;5.20;;;;;;;;;;8293060;28;20073;-65
2021/12/09 07:52:17;;;;;;;14.73;5.75;;;;;;;;;;8289963;28;20029;-64
2021/12/09 07:56:18;;;;;;;11.02;5.78;;;;;;;;;;8285861;28;20025;-64
2021/12/09 08:00:19;;;;;;;11.13;5.45;;;;;;;;;;8294867;28;20033;-64
2021/12/09 08:04:20;;;;;;;15.57;6.38;;;;;;;;;;8293881;28;20036;-64
2021/12/09 08:08:20;;;;;;;18.17;7.35;;;;;;;;;;8292296;28;20489;-65
2021/12/09 08:12:20;;;;;;;13.98;6.85;;;;;;;;;;8291901;28;20017;-64
2021/12/09 08:16:21;;;;;;;19.52;7.60;;;;;;;;;;8290306;28;20030;-64
2021/12/09 08:20:21;;;;;;;21.50;8.30;;;;;;;;;;8290853;28;21044;-64
2021/12/09 08:24:21;;;;;;;22.27;8.98;;;;;;;;;;8294202;28;20026;-64
2021/12/09 08:28:21;;;;;;;17.13;8.53;;;;;;;;;;8289980;28;20069;-64
2021/12/09 08:32:21;;;;;;;18.23;8.77;;;;;;;;;;8277796;28;20284;-64
2021/12/09 08:36:22;;;;;;;20.05;9.70;;;;;;;;;;8290236;28;20832;-64
2021/12/09 08:40:22;;;;;;;20.80;9.45;;;;;;;;;;8294091;28;20494;-64
2021/12/09 08:44:22;;;;;;;23.10;9.88;;;;;;;;;;8290130;28;20123;-65
2021/12/09 08:48:23;;;;;;;22.85;9.50;;;;;;;;;;8289646;28;20068;-64
2021/12/09 08:52:23;;;;;;;20.65;10.38;;;;;;;;;;8292931;28;20557;-65
2021/12/09 08:56:24;;;;;;;22.55;9.32;;;;;;;;;;8291572;28;20029;-64
2021/12/09 09:00:26;;;;;;;20.00;9.88;;;;;;;;;;8290852;28;20073;-65
2021/12/09 09:04:26;;;;;;;21.45;9.07;;;;;;;;;;8293681;28;20509;-65
2021/12/09 09:08:26;;;;;;;21.80;8.38;;;;;;;;;;8291044;28;20108;-64
2021/12/09 09:12:28;;;;;;;12.30;8.13;;;;;;;;;;8290890;28;20028;-64
2021/12/09 09:16:28;;;;;;;17.67;7.95;;;;;;;;;;8287061;28;20096;-64
2021/12/09 09:20:29;;;;;;;20.85;9.18;;;;;;;;;;8291587;28;21041;-64
2021/12/09 09:24:29;;;;;;;25.00;9.98;;;;;;;;;;8290334;28;20601;-64
2021/12/09 09:28:30;;;;;;;23.58;10.45;;;;;;;;;;8291295;28;20114;-64
2021/12/09 09:32:30;;;;;;;20.92;10.23;;;;;;;;;;8288677;28;20098;-64
2021/12/09 09:36:30;;;;;;;25.48;10.98;;;;;;;;;;8290616;28;20076;-64
2021/12/09 09:40:38;;;;;;;24.45;12.18;;;;;;;;;;8291772;28;20075;-64
2021/12/09 09:44:47;;;;;;;27.33;11.63;;;;;;;;;;8289269;28;20025;-64
2021/12/09 09:48:48;;;;;;;31.60;12.35;;;;;;;;;;8287470;28;21077;-64
2021/12/09 09:52:49;;;;;;;28.25;12.93;;;;;;;;;;8289789;28;20055;-64
2021/12/09 09:56:49;;;;;;;23.03;11.47;;;;;;;;;;8288203;28;20034;-64
2021/12/09 10:00:50;;;;;;;24.95;11.55;;;;;;;;;;8289463;28;20280;-64
2021/12/09 10:05:00;;;;;;;23.80;11.65;;;;;;;;;;8276836;28;20033;-64
2021/12/09 10:09:00;;;;;;;19.52;10.20;;;;;;;;;;8288962;28;20267;-64
2021/12/09 10:13:06;;;;;;;19.88;11.00;;;;;;;;;;8287645;28;20091;-64
2021/12/09 10:17:08;;;;;;;16.05;8.73;;;;;;;;;;8283303;28;20086;-64
2021/12/09 10:21:09;;;;;;;18.35;9.65;;;;;;;;;;8278670;28;20391;-64
2021/12/09 10:25:19;;;;;;;17.77;9.48;;;;;;;;;;8277387;28;20052;-64
2021/12/09 10:29:28;;;;;;;17.48;8.15;;;;;;;;;;8274576;28;20500;-64
2021/12/09 10:33:28;;;;;;;14.05;7.38;;;;;;;;;;8283899;28;20041;-64
2021/12/09 10:37:30;;;;;;;17.52;7.13;;;;;;;;;;8279469;28;20638;-64
2021/12/09 10:41:34;;;;;;;13.52;6.68;;;;;;;;;;8280834;28;20025;-64
2021/12/09 10:45:35;;;;;;;18.52;6.57;;;;;;;;;;8281047;28;20072;-64
2021/12/09 10:49:47;;;;;;;10.55;6.40;;;;;;;;;;8274879;28;20100;-64
2021/12/09 10:53:48;;;;;;;13.77;6.22;;;;;;;;;;8280120;28;20800;-64
2021/12/09 10:57:59;;;;;;;9.75;6.00;;;;;;;;;;8276494;28;20623;-64
2021/12/09 11:02:06;;;;;;;9.30;5.68;;;;;;;;;;8282915;28;20721;-65
2021/12/09 11:06:11;;;;;;;11.88;5.30;;;;;;;;;;8283459;28;20032;-64
2021/12/09 11:10:30;;;;;;;15.60;6.40;;;;;;;;;;8283601;28;20032;-64
2021/12/09 11:14:32;;;;;;;14.75;7.43;;;;;;;;;;8284176;28;20044;-64
2021/12/09 11:18:38;;;;;;;16.65;7.30;;;;;;;;;;8283172;28;20040;-64
2021/12/09 11:22:40;;;;;;;16.23;6.65;;;;;;;;;;8283695;28;20033;-64
2021/12/09 11:26:58;;;;;;;16.33;7.95;;;;;;;;;;8286117;28;20587;-65
2021/12/09 11:31:14;;;;;;;23.10;7.22;;;;;;;;;;8282113;28;20540;-65
2021/12/09 11:35:25;;;;;;;10.85;6.32;;;;;;;;;;8280473;28;20561;-64
2021/12/09 11:39:31;;;;;;;19.10;7.05;;;;;;;;;;8286061;28;20029;-64
2021/12/09 11:43:31;;;;;;;12.93;6.13;;;;;;;;;;8289905;28;20393;-64
2021/12/09 11:47:31;;;;;;;17.08;7.82;;;;;;;;;;8288800;28;20036;-64
2021/12/09 11:51:32;;;;;;;16.88;7.90;;;;;;;;;;8289578;28;20107;-64
2021/12/09 11:55:41;;;;;;;13.80;6.63;;;;;;;;;;8290215;28;20028;-64
2021/12/09 12:06:49;;;;;;;15.73;7.00;;;;;;;;;;8288157;28;20034;-64
2021/12/09 12:20:52;;;;;;;11.00;6.22;;;;;;;;;;8285448;28;20128;-64
2021/12/09 12:25:26;;;;;;;14.35;6.00;;;;;;;;;;8284408;28;20041;-64
2021/12/09 12:29:53;;;;;;;14.02;6.22;;;;;;;;;;8286977;28;20404;-64
2021/12/09 12:42:46;;;;;;;14.35;6.45;;;;;;;;;;8283597;28;20039;-64
2021/12/09 12:51:07;;;;;;;14.70;5.82;;;;;;;;;;8286787;28;20031;-65
2021/12/09 12:55:12;;;;;;;9.75;5.30;;;;;;;;;;8287550;28;20022;-65
2021/12/09 12:59:15;;;;;;;15.07;5.93;;;;;;;;;;8285865;28;20356;-64
2021/12/09 13:03:27;;;;;;;13.48;5.45;;;;;;;;;;8285751;28;20045;-64
2021/12/09 13:07:45;;;;;;;15.65;6.38;;;;;;;;;;8285105;28;20018;-64
2021/12/09 13:11:59;;;;;;;10.15;5.28;;;;;;;;;;8283049;28;20033;-65
2021/12/09 13:16:01;;;;;;;9.33;4.67;;;;;;;;;;8280464;28;20575;-65
2021/12/09 13:20:10;;;;;;;11.63;4.60;;;;;;;;;;8279172;28;20029;-64
2021/12/09 13:24:30;;;;;;;20.63;5.70;;;;;;;;;;8279771;28;20028;-64
2021/12/09 13:28:39;;;;;;;15.10;5.32;;;;;;;;;;8285548;28;20895;-64
2021/12/09 13:45:57;;;;;;;12.75;4.95;;;;;;;;;;8283876;28;20041;-65
2021/12/09 13:50:16;;;;;;;;;;;;;;;;;;8285133;28;20031;-64
2021/12/09 13:58:22;;;;;;;10.70;4.85;;;;;;;;;;8281295;28;20037;-64
2021/12/09 14:02:23;;;;;;;17.75;4.45;;;;;;;;;;8281682;28;20348;-64
2021/12/09 14:06:23;;;;;;;15.38;5.20;;;;;;;;;;8285539;28;20028;-64
2021/12/09 14:10:28;;;;;;;7.43;3.83;;;;;;;;;;8281695;28;20365;-65
2021/12/09 14:14:39;;;;;;;;;;;;;;;;;;8285918;28;20804;-64
2021/12/09 14:19:57;;;;;;;20.17;5.00;;;;;;;;;;8283492;28;19921;-64
2021/12/09 14:23:03;;;;;;;9.25;3.50;;;;;;;;;;8284187;28;20509;-64
2021/12/09 14:27:08;;;;;;;13.57;4.10;;;;;;;;;;8282393;28;20066;-64
2021/12/09 14:31:08;;;;;;;14.55;7.25;;;;;;;;;;8283399;28;20410;-64
2021/12/09 14:35:08;;;;;;;9.88;3.95;;;;;;;;;;8281442;28;20143;-64
2021/12/09 14:39:10;;;;;;;10.82;3.85;;;;;;;;;;8283333;28;20099;-64
2021/12/09 14:43:13;;;;;;;9.32;3.60;;;;;;;;;;8284634;28;20518;-64
2021/12/09 14:47:16;;;;;;;9.15;3.38;;;;;;;;;;8283758;28;20037;-65
2021/12/09 14:51:17;;;;;;;8.85;3.95;;;;;;;;;;8283635;28;20021;-65
2021/12/09 14:55:19;;;;;;;5.47;3.13;;;;;;;;;;8282052;28;20904;-67
2021/12/09 14:59:22;;;;;;;7.35;3.70;;;;;;;;;;8282998;28;20048;-65
2021/12/09 15:03:57;;;;;;;9.10;3.20;;;;;;;;;;8281265;28;20069;-66
2021/12/09 15:08:20;;;;;;;6.88;3.10;;;;;;;;;;8283239;28;20727;-64
2021/12/09 15:12:22;;;;;;;7.07;2.90;;;;;;;;;;8284084;28;20463;-65
2021/12/09 15:16:23;;;;;;;8.15;3.00;;;;;;;;;;8285955;28;20446;-64
2021/12/09 15:20:35;;;;;;;6.85;3.00;;;;;;;;;;8288951;28;20506;-64
2021/12/09 15:24:35;;;;;;;6.78;2.70;;;;;;;;;;8291314;28;20057;-65
2021/12/09 15:28:36;;;;;;;6.50;2.90;;;;;;;;;;8286541;28;20063;-64
2021/12/09 15:32:36;;;;;;;8.98;3.22;;;;;;;;;;8289664;28;20287;-64
2021/12/09 15:36:37;;;;;;;7.50;3.00;;;;;;;;;;8287346;28;20045;-64
2021/12/09 15:40:43;;;;;;;5.75;2.90;;;;;;;;;;8288943;28;20784;-64
2021/12/09 15:44:45;;;;;;;4.88;2.30;;;;;;;;;;8289393;28;20482;-64
2021/12/09 15:48:45;;;;;;;5.65;2.55;;;;;;;;;;8288936;28;20076;-64
2021/12/09 15:52:51;;;;;;;4.30;2.58;;;;;;;;;;8285580;28;20059;-65
2021/12/09 15:56:53;;;;;;;3.75;2.33;;;;;;;;;;8285958;28;20398;-65
2021/12/09 16:00:55;;;;;;;5.07;2.78;;;;;;;;;;8287959;28;20077;-65
2021/12/09 16:04:56;;;;;;;2.13;1.70;;;;;;;;;;8286095;28;20722;-65
2021/12/09 16:08:56;;;;;;;3.17;1.83;;;;;;;;;;8286814;28;20510;-65
2021/12/09 16:12:57;;;;;;;8.27;2.15;;;;;;;;;;8284928;28;20029;-65
2021/12/09 16:17:01;;;;;;;3.10;2.13;;;;;;;;;;8285250;28;20474;-65
2021/12/09 16:21:07;;;;;;;;;;;;;;;;;;8284397;28;20577;-64
2021/12/09 16:25:12;;;;;;;3.45;1.70;;;;;;;;;;8283740;28;19980;-65
2021/12/09 16:29:13;;;;;;;2.58;1.70;;;;;;;;;;8288983;28;20444;-64
2021/12/09 16:33:13;;;;;;;2.47;1.90;;;;;;;;;;8283698;28;20205;-64
2021/12/09 16:37:13;;;;;;;4.53;2.33;;;;;;;;;;8286291;28;20032;-65
2021/12/09 16:41:13;;;;;;;2.05;1.85;;;;;;;;;;8293629;28;20029;-64
2021/12/09 16:45:14;;;;;;;2.30;2.10;;;;;;;;;;8283873;28;20576;-65
2021/12/09 16:49:15;;;;;;;2.38;1.95;;;;;;;;;;8285570;28;20260;-65
2021/12/09 16:53:18;;;;;;;3.60;2.05;;;;;;;;;;8286592;28;20028;-65
2021/12/09 17:01:19;;;;;;;3.70;2.10;;;;;;;;;;8281709;28;20099;-65
2021/12/09 17:05:20;;;;;;;6.43;2.30;;;;;;;;;;8285692;28;20559;-65
2021/12/09 17:09:20;;;;;;;3.33;2.30;;;;;;;;;;8285563;28;20030;-64
2021/12/09 17:13:20;;;;;;;6.13;2.20;;;;;;;;;;8279325;28;20022;-64
2021/12/09 17:17:21;;;;;;;3.13;1.85;;;;;;;;;;8285218;28;20041;-64
2021/12/09 17:21:22;;;;;;;3.00;1.80;;;;;;;;;;8289048;28;20113;-64
2021/12/09 17:25:23;;;;;;;2.22;1.95;;;;;;;;;;8285756;28;20037;-64
2021/12/09 17:29:24;;;;;;;1.88;1.67;;;;;;;;;;8284843;28;20429;-64
2021/12/09 17:33:27;;;;;;;3.03;1.73;;;;;;;;;;8284323;28;20103;-64
2021/12/09 17:37:27;;;;;;;2.90;1.48;;;;;;;;;;8281633;28;20009;-64
2021/12/09 17:41:27;;;;;;;2.20;1.80;;;;;;;;;;8286130;28;20143;-64
2021/12/09 17:45:28;;;;;;;1.75;1.50;;;;;;;;;;8280616;28;20041;-64
2021/12/09 17:49:31;;;;;;;1.88;1.70;;;;;;;;;;8285681;28;20521;-64
2021/12/09 17:53:31;;;;;;;2.30;1.15;;;;;;;;;;8286290;28;20037;-64
2021/12/09 17:57:31;;;;;;;3.30;1.70;;;;;;;;;;8277622;28;20545;-66
2021/12/09 18:01:31;;;;;;;2.05;1.30;;;;;;;;;;8282373;28;20044;-65
2021/12/09 18:05:32;;;;;;;2.90;1.73;;;;;;;;;;8281785;28;20510;-65
2021/12/09 18:09:33;;;;;;;2.03;1.45;;;;;;;;;;8283686;28;20032;-64
2021/12/09 18:13:34;;;;;;;4.43;1.88;;;;;;;;;;8281557;28;20108;-65
2021/12/09 18:17:36;;;;;;;2.58;1.45;;;;;;;;;;8280472;28;20056;-65
2021/12/09 18:21:37;;;;;;;2.40;1.73;;;;;;;;;;8280997;28;20786;-64
2021/12/09 18:25:37;;;;;;;1.98;1.70;;;;;;;;;;8278501;28;20469;-64
2021/12/09 18:29:38;;;;;;;2.03;1.58;;;;;;;;;;8280302;28;20055;-66
2021/12/09 18:33:39;;;;;;;2.08;1.40;;;;;;;;;;8280011;28;20049;-64
2021/12/09 18:37:49;;;;;;;1.35;1.25;;;;;;;;;;8280724;28;20043;-64
2021/12/09 18:41:50;;;;;;;1.45;1.35;;;;;;;;;;8282763;28;20825;-65
2021/12/09 18:45:51;;;;;;;1.40;1.30;;;;;;;;;;8276639;28;20042;-65
2021/12/09 18:49:51;;;;;;;1.35;1.25;;;;;;;;;;8286882;28;20053;-66
2021/12/09 18:53:51;;;;;;;1.75;1.30;;;;;;;;;;8279670;28;20027;-64
2021/12/09 18:57:52;;;;;;;3.30;1.42;;;;;;;;;;8280273;28;20113;-64
2021/12/09 19:01:54;;;;;;;2.17;1.60;;;;;;;;;;8276945;28;20081;-64
2021/12/09 19:05:54;;;;;;;1.88;1.40;;;;;;;;;;8281087;28;20219;-65
2021/12/09 19:09:54;;;;;;;1.88;1.52;;;;;;;;;;8278470;28;20025;-66
2021/12/09 19:13:55;;;;;;;1.40;1.30;;;;;;;;;;8280265;28;20530;-65
2021/12/09 19:18:03;;;;;;;1.67;1.40;;;;;;;;;;8278183;28;20045;-64
2021/12/09 19:22:04;;;;;;;2.83;1.60;;;;;;;;;;8279028;28;20079;-65
2021/12/09 19:26:04;;;;;;;1.33;1.23;;;;;;;;;;8279863;28;20661;-64
2021/12/09 19:30:09;;;;;;;1.70;1.60;;;;;;;;;;8280680;28;20470;-64
2021/12/09 19:34:10;;;;;;;1.63;1.52;;;;;;;;;;8277614;28;20674;-64
2021/12/09 19:38:10;;;;;;;1.80;1.63;;;;;;;;;;8279911;28;20044;-65
2021/12/09 19:42:10;;;;;;;1.92;1.60;;;;;;;;;;8278205;28;20061;-64
2021/12/09 19:46:11;;;;;;;1.90;1.80;;;;;;;;;;8279306;28;20624;-65
2021/12/09 19:50:12;;;;;;;2.00;1.90;;;;;;;;;;8280683;28;20403;-64
2021/12/09 19:54:13;;;;;;;2.03;1.80;;;;;;;;;;8278815;28;20442;-66
2021/12/09 19:58:13;;;;;;;5.57;1.90;;;;;;;;;;8278052;28;20309;-64
2021/12/09 20:02:13;;;;;;;1.60;1.50;;;;;;;;;;8276756;28;20044;-64
2021/12/09 20:06:14;;;;;;;1.65;1.55;;;;;;;;;;8285610;28;20029;-64
2021/12/09 20:10:17;;;;;;;1.40;1.30;;;;;;;;;;8286472;28;20461;-64
2021/12/09 20:14:17;;;;;;;1.45;1.33;;;;;;;;;;8283745;28;20325;-64
2021/12/09 20:18:18;;;;;;;1.30;1.20;;;;;;;;;;8281621;28;20526;-64
2021/12/09 20:22:19;;;;;;;1.38;1.27;;;;;;;;;;8284440;28;20037;-64
2021/12/09 20:26:19;;;;;;;1.33;1.10;;;;;;;;;;8282429;28;20344;-64
2021/12/09 20:30:21;;;;;;;1.30;1.17;;;;;;;;;;8281623;28;20576;-64
2021/12/09 20:34:22;;;;;;;2.35;2.10;;;;;;;;;;8284777;28;20272;-64
2021/12/09 20:38:22;;;;;;;1.85;1.73;;;;;;;;;;8283673;28;20026;-64
2021/12/09 20:42:22;;;;;;;1.80;1.58;;;;;;;;;;8282426;28;20024;-64
2021/12/09 20:46:22;;;;;;;2.10;1.85;;;;;;;;;;8283773;28;20543;-64
2021/12/09 20:50:26;;;;;;;2.28;2.05;;;;;;;;;;8283481;28;20078;-64
2021/12/09 20:54:26;;;;;;;2.33;1.70;;;;;;;;;;8280511;28;20033;-64
2021/12/09 20:58:27;;;;;;;1.80;1.70;;;;;;;;;;8282990;28;20083;-64
2021/12/09 21:02:27;;;;;;;2.63;2.13;;;;;;;;;;8282693;28;20159;-64
2021/12/09 21:06:27;;;;;;;4.07;3.10;;;;;;;;;;8280956;28;20025;-64
2021/12/09 21:10:28;;;;;;;4.72;2.50;;;;;;;;;;8281967;28;20026;-64
2021/12/09 21:14:28;;;;;;;5.43;3.20;;;;;;;;;;8280991;28;20372;-64
2021/12/09 21:18:29;;;;;;;4.38;3.67;;;;;;;;;;8281289;28;20052;-64
2021/12/09 21:22:29;;;;;;;5.63;2.90;;;;;;;;;;8281014;28;20030;-64
2021/12/09 21:26:30;;;;;;;5.97;3.22;;;;;;;;;;8281841;28;20652;-64
2021/12/09 21:30:30;;;;;;;3.80;3.20;;;;;;;;;;8282476;28;21006;-64
2021/12/09 21:34:37;;;;;;;4.57;3.22;;;;;;;;;;8284931;28;20021;-64
2021/12/09 21:38:38;;;;;;;6.00;3.17;;;;;;;;;;8284177;28;20076;-64
2021/12/09 21:42:38;;;;;;;4.88;2.80;;;;;;;;;;8279778;28;20041;-64
2021/12/09 21:46:39;;;;;;;10.73;3.77;;;;;;;;;;8280521;28;20062;-64
2021/12/09 21:50:39;;;;;;;6.15;3.00;;;;;;;;;;8281741;28;20823;-64
2021/12/09 21:54:39;;;;;;;6.10;2.90;;;;;;;;;;8280998;28;20021;-65
2021/12/09 21:58:40;;;;;;;7.83;3.07;;;;;;;;;;8282259;28;20402;-64
2021/12/09 22:02:40;;;;;;;7.07;3.20;;;;;;;;;;8280499;28;20840;-64
2021/12/09 22:06:43;;;;;;;7.88;3.78;;;;;;;;;;8279922;28;20345;-64
2021/12/09 22:10:43;;;;;;;8.25;3.45;;;;;;;;;;8282726;28;20032;-64
2021/12/09 22:14:43;;;;;;;7.53;2.80;;;;;;;;;;8280790;28;20487;-64
2021/12/09 22:18:49;;;;;;;7.82;3.15;;;;;;;;;;8279502;28;20045;-64
2021/12/09 22:22:49;;;;;;;7.68;3.20;;;;;;;;;;8282470;28;20037;-64
2021/12/09 22:26:50;;;;;;;10.50;3.13;;;;;;;;;;8283090;28;20461;-64
2021/12/09 22:30:50;;;;;;;8.13;3.22;;;;;;;;;;8275336;28;20040;-64
2021/12/09 22:34:50;;;;;;;9.02;3.05;;;;;;;;;;8284643;28;20051;-64
2021/12/09 22:38:50;;;;;;;18.83;3.88;;;;;;;;;;8287354;28;20709;-64
2021/12/09 22:42:50;;;;;;;7.47;3.47;;;;;;;;;;8284413;28;20397;-64
2021/12/09 22:46:54;;;;;;;16.23;3.40;;;;;;;;;;8283960;28;20438;-64
2021/12/09 22:51:04;;;;;;;9.55;3.47;;;;;;;;;;8283553;28;20350;-64
2021/12/09 22:55:08;;;;;;;10.73;3.03;;;;;;;;;;8282600;28;20063;-64
2021/12/09 22:59:09;;;;;;;12.13;2.80;;;;;;;;;;8286571;28;20142;-64
2021/12/09 23:03:12;;;;;;;11.40;2.70;;;;;;;;;;8288418;28;20291;-64
2021/12/09 23:07:13;;;;;;;7.20;2.55;;;;;;;;;;8283037;28;20461;-64
2021/12/09 23:11:23;;;;;;;7.78;2.88;;;;;;;;;;8278882;28;20053;-64
2021/12/09 23:15:24;;;;;;;8.25;2.97;;;;;;;;;;8282215;28;20153;-64
2021/12/09 23:19:24;;;;;;;11.45;3.03;;;;;;;;;;8284303;28;20057;-64
2021/12/09 23:23:24;;;;;;;6.50;2.85;;;;;;;;;;8283620;28;20017;-64
2021/12/09 23:27:25;;;;;;;9.50;3.05;;;;;;;;;;8283852;28;20086;-64
2021/12/09 23:31:25;;;;;;;12.63;2.92;;;;;;;;;;8281725;28;20593;-64
2021/12/09 23:35:25;;;;;;;11.00;2.90;;;;;;;;;;8281459;28;20030;-64
2021/12/09 23:39:26;;;;;;;13.53;3.43;;;;;;;;;;8287149;28;20124;-64
2021/12/09 23:43:27;;;;;;;12.13;2.97;;;;;;;;;;8285007;28;20275;-64
2021/12/09 23:47:27;;;;;;;7.38;2.45;;;;;;;;;;8285917;28;20081;-64
2021/12/09 23:51:28;;;;;;;9.43;2.60;;;;;;;;;;8289108;28;20022;-64
2021/12/09 23:55:28;;;;;;;8.77;2.60;;;;;;;;;;8289754;28;20417;-64
2021/12/09 23:59:28;;;;;;;6.53;2.60;;;;;;;;;;8288288;28;20086;-64
